Wind from 150 at 11 knots

Air temperature 6.0° C
Visibility: greater than 5.4 NM
Dewpoint 5.0° C

Last reported at 2014-Apr-19 23:20 UTC.
Time now 2014-Apr-20 00:54 UTC

Location: N 58°27' W 003°05'.
View on Google Maps.

See reports from other nearby stations

Tides Stations Pressure Air Temp Water Temp Dewpoint Dewpoint depression Visibility Wind Speed Wind Dir Waves Ship positions

  
sailing weather and tide predictions

WICK weather

date/time (UTC)wind fromknots sea level pressurealtimeterstation pressurevisibilityair tempwater tempwave heightnotes
2014-Apr-19 23:20 150 11 5.4 6.0
2014-Apr-19 22:50 140 11 5.4 6.0
2014-Apr-19 22:20 140 10 5.4 7.0
2014-Apr-19 21:50 140 9 5.4 7.0
2014-Apr-19 21:20 140 9 5.4 7.0
2014-Apr-19 20:50 140 11 5.4 7.0
2014-Apr-19 20:20 150 8 5.4 7.0
2014-Apr-19 19:50 140 9 5.4 7.0
2014-Apr-19 19:20 150 8 5.4 8.0
2014-Apr-19 18:50 150 8 5.4 8.0
2014-Apr-19 18:20 150 11 5.4 8.0
2014-Apr-19 17:50 150 12 5.4 9.0
2014-Apr-19 17:20 150 13 5.4 9.0
2014-Apr-19 16:50 150 12 5.410.0
2014-Apr-19 16:20 140 11 5.410.0
2014-Apr-19 15:50 140 11 5.410.0
2014-Apr-19 15:20 140 11 5.411.0
2014-Apr-19 14:50 130 9 5.411.0
2014-Apr-19 14:20 140 9 5.410.0
2014-Apr-19 13:50 130 7 5.411.0
2014-Apr-19 13:20 160 6 5.412.0
2014-Apr-19 12:50 170 8 5.412.0
2014-Apr-19 12:20 160 10 5.410.0
2014-Apr-19 11:50 150 9 5.411.0
2014-Apr-19 11:20 140 12 5.410.0
2014-Apr-19 10:50 150 10 5.4 9.0
2014-Apr-19 10:20 150 10 5.4 9.0
2014-Apr-19 09:50 150 10 5.410.0
2014-Apr-19 09:20 140 9 5.410.0
2014-Apr-19 08:50 130 9 5.4 9.0
2014-Apr-19 08:20 140 6 5.410.0
2014-Apr-19 07:50 5.4 9.0
2014-Apr-19 07:20 200 4 5.4 9.0
2014-Apr-19 06:50 5.4 8.0
2014-Apr-19 06:20 5.4 7.0
2014-Apr-19 05:50 5.4 7.0
2014-Apr-19 05:20 180 3 5.4 6.0
2014-Apr-19 04:50 210 3 5.4 6.0
2014-Apr-19 04:20 210 4 5.4 6.0
2014-Apr-19 03:50 230 2 5.4 5.0
2014-Apr-19 03:20 5.4 5.0
2014-Apr-19 02:50 5.4 6.0
2014-Apr-19 02:20 150 4 4.9 6.0
2014-Apr-19 01:50 5.4 6.0
2014-Apr-19 01:20 5.4 5.0
2014-Apr-19 00:50 170 3 5.4 7.0
2014-Apr-19 00:20 170 2 5.4 7.0
2014-Apr-18 23:50 150 3 5.4 7.0
2014-Apr-18 23:20 150 6 5.4 7.0
2014-Apr-18 22:50 150 7 5.4 7.0
2014-Apr-18 22:20 150 9 5.4 8.0
2014-Apr-18 21:50 140 9 5.4 8.0
2014-Apr-18 21:20 130 9 5.4 7.0
2014-Apr-18 20:50 120 6 5.4 7.0
2014-Apr-18 20:20 090 4 5.4 7.0
2014-Apr-18 19:50 120 4 5.4 7.0
2014-Apr-18 19:20 080 2 5.4 7.0
2014-Apr-18 18:50 160 2 7.0
2014-Apr-18 18:20 160 6 8.0
2014-Apr-18 17:50 160 5 8.0
2014-Apr-18 17:20 170 5 9.0
2014-Apr-18 16:50 170 7 8.0
2014-Apr-18 16:20 160 12 9.0
2014-Apr-18 15:50 160 12 9.0
2014-Apr-18 15:20 160 11 10.0
2014-Apr-18 14:50 160 9 11.0
2014-Apr-18 14:20 170 11 10.0
2014-Apr-18 13:50 150 11 10.0
2014-Apr-18 13:20 170 11 10.0
2014-Apr-18 12:50 180 12 9.0
2014-Apr-18 12:20 170 11 9.0
2014-Apr-18 11:50 160 10 9.0
2014-Apr-18 11:20 150 9 10.0
2014-Apr-18 10:50 160 9 9.0
2014-Apr-18 10:20 160 7 9.0
2014-Apr-18 09:50 180 7 9.0
2014-Apr-18 09:20 220 5 8.0
2014-Apr-18 08:50 210 4 8.0
2014-Apr-18 08:20 230 5 7.0
2014-Apr-18 07:50 250 4 6.0
2014-Apr-18 07:20 240 3 5.0
2014-Apr-18 06:50 250 4 3.0
2014-Apr-18 06:20 240 4 5.4 2.0
2014-Apr-18 05:50 260 5 5.4 1.0
2014-Apr-18 05:20 240 3 5.4 2.0
2014-Apr-18 04:50 240 4 5.4 2.0
2014-Apr-18 04:20 240 4 5.4 1.0
2014-Apr-18 03:50 240 4 5.4 1.0
2014-Apr-18 03:20 230 4 5.4 1.0
2014-Apr-18 02:50 230 3 5.4-0.0
2014-Apr-18 02:20 260 5 5.4-0.0
2014-Apr-18 01:50 290 5 5.4-0.0
2014-Apr-18 01:20 270 4 5.4 1.0
2014-Apr-18 00:50 300 4 5.4-0.0
2014-Apr-18 00:20 320 5 5.4 1.0